Nearby METAR Reports

 

KDVT - Phoenix/Deer Vly, Arizona, USA
Distance from station: SSE 14mi, 22km
Updated: 10/15/2018 6:53pm
Clear
Clear
 Wind from NE
Wind: NE 8 mph , 13 km/h
Temperature: 70°F , 21°C
Dew Point: 37°F , 3°C
Humidity: 31%
Barometer: 29.92 inHg , 1013.2 hPa
Clouds: Clear
Visibility: 10 miles , 16 km
2018/10/16 01:53 KDVT 160153Z 05007KT 10SM CLR 21/03 A2992 RMK AO2 SLP117 T02110028
KSDL - Scottsdale, Arizona, USA
Distance from station: SE 22mi, 35km
Updated: 10/15/2018 6:53pm
Clear
Clear
 Wind from NE
Wind: NE 12 mph , 19 km/h
Temperature: 73°F , 23°C
Dew Point: 39°F , 4°C
Humidity: 29%
Barometer: 29.93 inHg , 1013.5 hPa
Clouds: Clear
Visibility: 10 miles , 16 km
2018/10/16 01:53 KSDL 160153Z 04010KT 10SM CLR 23/04 A2993 RMK AO2 SLP118 T02280044
 
KGEU - Glendale, Arizona, USA
Distance from station: SSW 25mi, 41km
Updated: 10/15/2018 6:48pm
Partly cloudy
Partly cloudy
 Wind from NW
Wind: NW 7 mph , 11 km/h
Temperature: 73°F , 23°C
Dew Point: 34°F , 1°C
Humidity: 23%
Barometer: 29.93 inHg , 1013.5 hPa
Clouds: Partly cloudy
Visibility: 10 miles , 16 km
Cloud details: Partly cloudy 12000 ft
2018/10/16 01:48 KGEU 160148Z 32006KT 10SM SCT120 23/01 A2993
KLUF - Luke Afb/Glendal, Arizona, USA
Distance from station: SSW 28mi, 45km
Updated: 10/15/2018 6:58pm
Clear
Clear
 Wind from N
Wind: N 9 mph , 15 km/h
Temperature: 72°F , 22°C
Dew Point: 36°F , 2°C
Humidity: 27%
Barometer: 29.90 inHg , 1012.5 hPa
Clouds: Clear
Visibility: 10 miles , 16 km
2018/10/16 01:58 KLUF 160158Z AUTO 36008KT 10SM CLR 22/02 A2990 RMK AO2 SLP118 T02170024 RVRNO $
 
KPHX - Phoenix/Sky Hrbr, Arizona, USA
Distance from station: SSE 31mi, 51km
Updated: 10/15/2018 6:51pm
Mostly cloudy
Mostly cloudy
 Wind from NW
Wind: NW 8 mph , 13 km/h
Temperature: 75°F , 24°C
Dew Point: 36°F , 2°C
Humidity: 24%
Barometer: 29.89 inHg , 1012.2 hPa
Clouds: Mostly cloudy
Visibility: 10 miles , 16 km
Cloud details: Partly cloudy 9000 ft
Mostly cloudy 11000 ft
2018/10/16 01:51 KPHX 160151Z 32007KT 10SM SCT090 BKN110 24/02 A2989 RMK AO2 SLP107 VIRGO T02440022 $
KGYR - Goodyear Municip, Arizona, USA
Distance from station: SSW 34mi, 55km
Updated: 10/15/2018 6:47pm
Partly cloudy
Partly cloudy
 Wind from SSW
Wind: SSW 6 mph , 9 km/h
Temperature: 66°F , 19°C
Dew Point: 54°F , 12°C
Humidity: 64%
Barometer: 29.91 inHg , 1012.9 hPa
Clouds: Partly cloudy
Visibility: 10 miles , 16 km
Cloud details: Few Clouds 7000 ft
Partly cloudy 12000 ft
2018/10/16 01:47 KGYR 160147Z 20005KT 10SM FEW070 SCT120 19/12 A2991
 
KFFZ - Mesa/Falcon Fld, Arizona, USA
Distance from station: SE 37mi, 60km
Updated: 10/15/2018 6:47pm
Partly cloudy
Partly cloudy
 Wind from NNE
Wind: NNE 10 mph , 17 km/h
Temperature: 72°F , 22°C
Dew Point: 45°F , 7°C
Humidity: 38%
Barometer: 29.92 inHg , 1013.2 hPa
Clouds: Partly cloudy
Visibility: 40 miles , 64 km
Cloud details: Few Clouds 8000 ft
Partly cloudy 12000 ft
2018/10/16 01:47 KFFZ 160147Z 02009KT 40SM FEW080 SCT120 22/07 A2992
KBXK - Buckeye, Arizona, USA
Distance from station: SW 45mi, 72km
Updated: 10/15/2018 6:55pm
Partly cloudy
Partly cloudy
 Wind from NW
Wind: NW 3 mph , 6 km/h
Temperature: 64°F , 18°C
Dew Point: 50°F , 10°C
Humidity: 60%
Barometer: 29.92 inHg , 1013.2 hPa
Clouds: Partly cloudy
Visibility: 10 miles , 16 km
Cloud details: Partly cloudy 12000 ft
2018/10/16 01:55 KBXK 160155Z AUTO 31003KT 10SM SCT120 18/10 A2992 RMK AO1
 
KIWA - Chandler/Mesa, Arizona, USA
Distance from station: SE 49mi, 78km
Updated: 10/15/2018 6:47pm
Mostly cloudy
Mostly cloudy
 Wind from varies
Wind: varies 7 mph , 11 km/h
Temperature: 73°F , 23°C
Dew Point: 43°F , 6°C
Humidity: 33%
Barometer: 29.92 inHg , 1013.2 hPa
Clouds: Mostly cloudy
Visibility: 20 miles , 32 km
Cloud details: Few Clouds 7000 ft
Partly cloudy 9000 ft
Mostly cloudy 12000 ft
2018/10/16 01:47 KIWA 160147Z VRB06KT 20SM FEW070 SCT090 BKN120 23/06 A2992 RMK LTG IC DSNT SE
KPAN - Payson, Arizona, USA
Distance from station: ENE 53mi, 85km
Updated: 10/15/2018 6:55pm
Few Clouds
Few Clouds
 Wind from NE
Wind: NE 12 mph , 19 km/h, Gust: 17 mph , 28 km/h
Temperature: 48°F , 9°C
Wind Chill: 43°F , 6°C
Dew Point: 25°F , -4°C
Humidity: 40%
Barometer: 30.11 inHg , 1019.6 hPa
Clouds: Few Clouds
Visibility: 10 miles , 16 km
Cloud details: Few Clouds 8000 ft
2018/10/16 01:55 KPAN 160155Z AUTO 05010G15KT 10SM FEW080 09/M04 A3011 RMK AO2
 
KPRC - Prescott, Arizona, USA
Distance from station: NNW 56mi, 90km
Updated: 10/15/2018 6:53pm
Clear
Clear
 Wind from NNE
Wind: NNE 5 mph , 7 km/h
Temperature: 45°F , 7°C
Wind Chill: 42°F , 6°C
Dew Point: 25°F , -4°C
Humidity: 46%
Barometer: 30.12 inHg , 1020 hPa
Clouds: Clear
Visibility: 10 miles , 16 km
2018/10/16 01:53 KPRC 160153Z 02004KT 10SM CLR 07/M04 A3012 RMK AO2 SLP181 T00721039
KCGZ - Casa Granda, Arizona, USA
Distance from station: SSE 67mi, 109km
Updated: 10/15/2018 6:56pm
Mostly cloudy
Mostly cloudy
 Wind from W
Wind: W 9 mph , 15 km/h
Temperature: 68°F , 20°C
Dew Point: 50°F , 10°C
Humidity: 53%
Barometer: 29.92 inHg , 1013.2 hPa
Clouds: Mostly cloudy
Visibility: 10 miles , 16 km
Cloud details: Mostly cloudy 12000 ft
2018/10/16 01:56 KCGZ 160156Z AUTO 28008KT 10SM BKN120 20/10 A2992 RMK AO2 LTG DSNT E SLP126 T02000100 $
 
KSEZ - Sedona, Arizona, USA
Distance from station: NNE 70mi, 113km
Updated: 10/15/2018 6:55pm
Clear
Clear
 Wind from NE
Wind: NE 14 mph , 22 km/h, Gust: 24 mph , 39 km/h
Temperature: 50°F , 10°C
Wind Chill: 45°F , 7°C
Dew Point: 18°F , -8°C
Humidity: 28%
Barometer: 30.11 inHg , 1019.6 hPa
Clouds: Clear
Visibility: 10 miles , 16 km
2018/10/16 01:55 KSEZ 160155Z AUTO 04012G21KT 10SM CLR 10/M08 A3011 RMK AO2
KGXF - Gila Bend (aaf), Arizona, USA
Distance from station: SSW 77mi, 124km
Updated: 10/15/2018 5:58pm
Partly cloudy
Partly cloudy
 Wind from W
Wind: W 7 mph , 11 km/h
Temperature: 72°F , 22°C
Dew Point: 48°F , 9°C
Humidity: 44%
Barometer: 29.90 inHg , 1012.5 hPa
Clouds: Partly cloudy
Visibility: 10 miles , 16 km
Cloud details: Few Clouds 10000 ft
Partly cloudy 15000 ft
2018/10/16 00:58 KGXF 160058Z 27006KT 10SM FEW100 SCT150 22/09 A2990 RMK AO2A ACC SW AND N-NE SLP118 T02170088
 
KP08 - Coolidge Muni, Arizona, USA
Distance from station: SSE 77mi, 124km
Updated: 10/15/2018 6:55pm
Overcast
Overcast
 Wind from calm
Wind: Calm
Temperature: 70°F , 21°C
Dew Point: 50°F , 10°C
Humidity: 50%
Barometer: 29.94 inHg , 1013.9 hPa
Clouds: Overcast
Visibility: 10 miles , 16 km
Cloud details: Few Clouds 4700 ft
Mostly cloudy 6500 ft
Overcast 8000 ft
2018/10/16 01:55 KP08 160155Z AUTO 00000KT 10SM FEW047 BKN065 OVC080 21/10 A2994 RMK AO2
KFLG - Flagstaff, Arizona, USA
Distance from station: NNE 91mi, 146km
Updated: 10/15/2018 6:57pm
Clear
Clear
 Wind from NE
Wind: NE 12 mph , 19 km/h
Temperature: 37°F , 3°C
Wind Chill: 29°F , -2°C
Dew Point: 10°F , -12°C
Humidity: 33%
Barometer: 30.18 inHg , 1022 hPa
Clouds: Clear
Visibility: 10 miles , 16 km
2018/10/16 01:57 KFLG 160157Z AUTO 05010KT 10SM CLR 03/M12 A3018 RMK AO2 SLP203 T00281122
 
KCMR - Williams Clark, Arizona, USA
Distance from station: N 98mi, 158km
Updated: 10/15/2018 6:55pm
Clear
Clear
 Wind from NE
Wind: NE 12 mph , 19 km/h
Temperature: 37°F , 3°C
Wind Chill: 29°F , -2°C
Dew Point: 9°F , -13°C
Humidity: 30%
Barometer: 30.17 inHg , 1021.7 hPa
Clouds: Clear
Visibility: 10 miles , 16 km
2018/10/16 01:55 KCMR 160155Z AUTO 04010KT 10SM CLR 03/M13 A3017 RMK AO2